Time;durP1;ratioP1;P1;durP2;ratioP2;P2;SDS_P1;SDS_P2;PMS_P1;PMS_P2;Temp;Humidity;BMP_temperature;BMP_pressure;BME280_temperature;BME280_humidity;BME280_pressure;Samples;Min_cycle;Max_cycle;Signal;HPM_P1;HPM_P2
2024/01/05 00:02:19;;;;;;;46.73;26.63;;;;;;;;;;10582430;28;20518;-91
2024/01/05 00:07:23;;;;;;;47.25;25.30;;;;;;;;;;10602759;28;20410;-92
2024/01/05 00:12:26;;;;;;;46.80;25.73;;;;;;;;;;10575848;28;20810;-90
2024/01/05 00:17:28;;;;;;;45.92;25.77;;;;;;;;;;10554683;28;20400;-92
2024/01/05 00:22:32;;;;;;;43.15;25.15;;;;;;;;;;10566867;28;20448;-91
2024/01/05 00:27:34;;;;;;;45.85;24.58;;;;;;;;;;10568304;28;20394;-91
2024/01/05 00:32:37;;;;;;;40.72;23.67;;;;;;;;;;10571543;28;20400;-90
2024/01/05 00:37:41;;;;;;;38.97;22.90;;;;;;;;;;10566520;28;20498;-91
2024/01/05 00:42:43;;;;;;;40.83;21.63;;;;;;;;;;10571140;28;20456;-91
2024/01/05 00:47:45;;;;;;;41.93;22.37;;;;;;;;;;10573010;28;20395;-92
2024/01/05 00:52:49;;;;;;;39.63;21.67;;;;;;;;;;10575432;28;20399;-92
2024/01/05 00:57:52;;;;;;;41.65;21.52;;;;;;;;;;10576529;28;20410;-90
2024/01/05 01:02:54;;;;;;;37.47;21.23;;;;;;;;;;10579935;28;20500;-91
2024/01/05 01:07:58;;;;;;;40.00;20.87;;;;;;;;;;10561237;28;20460;-91
2024/01/05 01:13:02;;;;;;;40.50;20.85;;;;;;;;;;10558511;28;20881;-91
2024/01/05 01:18:05;;;;;;;37.15;20.60;;;;;;;;;;10576144;28;20391;-91
2024/01/05 01:23:08;;;;;;;38.38;20.75;;;;;;;;;;10592999;28;20471;-90
2024/01/05 01:28:11;;;;;;;34.88;19.63;;;;;;;;;;10584827;28;20407;-91
2024/01/05 01:33:13;;;;;;;35.60;19.63;;;;;;;;;;10579177;28;20471;-92
2024/01/05 01:38:17;;;;;;;38.13;20.10;;;;;;;;;;10582022;28;20553;-91
2024/01/05 01:43:21;;;;;;;35.97;20.03;;;;;;;;;;10568822;28;20471;-91
2024/01/05 01:48:24;;;;;;;37.35;19.88;;;;;;;;;;10580245;28;20422;-91
2024/01/05 01:53:28;;;;;;;39.53;20.67;;;;;;;;;;10574721;28;20448;-91
2024/01/05 01:58:31;;;;;;;38.77;19.57;;;;;;;;;;10556691;28;21261;-89
2024/01/05 02:03:34;;;;;;;36.97;20.03;;;;;;;;;;10582500;28;20916;-91
2024/01/05 02:08:38;;;;;;;33.83;18.52;;;;;;;;;;10572500;28;20820;-91
2024/01/05 02:13:40;;;;;;;38.40;20.55;;;;;;;;;;10579148;28;20425;-91
2024/01/05 02:18:50;;;;;;;35.78;19.35;;;;;;;;;;10569808;28;20946;-91
2024/01/05 02:23:54;;;;;;;36.33;19.47;;;;;;;;;;10569120;28;20429;-90
2024/01/05 02:28:56;;;;;;;38.63;21.17;;;;;;;;;;10568175;28;20456;-91
2024/01/05 02:33:58;;;;;;;40.63;20.67;;;;;;;;;;10581885;28;20395;-90
2024/01/05 02:39:02;;;;;;;44.03;20.50;;;;;;;;;;10588613;28;20483;-91
2024/01/05 02:44:05;;;;;;;39.90;19.83;;;;;;;;;;10576781;28;20415;-86
2024/01/05 02:49:07;;;;;;;43.10;20.75;;;;;;;;;;10570437;28;20430;-92
2024/01/05 02:54:11;;;;;;;38.30;19.40;;;;;;;;;;10564651;28;20410;-91
2024/01/05 02:59:13;;;;;;;40.60;19.83;;;;;;;;;;10568788;28;20399;-91
2024/01/05 03:04:15;;;;;;;36.63;19.25;;;;;;;;;;10584652;28;20811;-91
2024/01/05 03:09:19;;;;;;;32.15;17.63;;;;;;;;;;10581160;28;20406;-91
2024/01/05 03:14:22;;;;;;;34.22;18.85;;;;;;;;;;10570262;28;20406;-92
2024/01/05 03:19:24;;;;;;;34.13;18.23;;;;;;;;;;10581630;28;20406;-91
2024/01/05 03:24:28;;;;;;;38.53;18.77;;;;;;;;;;10582911;28;20476;-91
2024/01/05 03:29:30;;;;;;;35.30;18.75;;;;;;;;;;10582432;28;20439;-89
2024/01/05 03:34:32;;;;;;;37.23;18.57;;;;;;;;;;10580775;28;20463;-91
2024/01/05 03:39:36;;;;;;;36.47;18.97;;;;;;;;;;10570917;28;20402;-91
2024/01/05 03:44:38;;;;;;;35.70;19.30;;;;;;;;;;10583287;28;20484;-91
2024/01/05 03:49:41;;;;;;;38.87;18.83;;;;;;;;;;10574291;27;20418;-91
2024/01/05 03:54:45;;;;;;;33.53;18.27;;;;;;;;;;10570498;28;20862;-91
2024/01/05 03:59:47;;;;;;;32.28;16.65;;;;;;;;;;10576816;28;20487;-91
2024/01/05 04:04:49;;;;;;;35.57;17.27;;;;;;;;;;10558582;28;20475;-92
2024/01/05 04:09:53;;;;;;;30.65;16.13;;;;;;;;;;10561995;28;20406;-91
2024/01/05 04:14:55;;;;;;;32.27;16.17;;;;;;;;;;10573089;28;20402;-91
2024/01/05 04:19:58;;;;;;;29.17;15.32;;;;;;;;;;10572588;28;20495;-91
2024/01/05 04:25:02;;;;;;;26.40;15.50;;;;;;;;;;10571298;28;20472;-92
2024/01/05 04:30:06;;;;;;;29.27;15.85;;;;;;;;;;10558158;28;20419;-92
2024/01/05 04:35:09;;;;;;;30.15;15.57;;;;;;;;;;10573291;28;20438;-92
2024/01/05 04:40:13;;;;;;;25.70;15.13;;;;;;;;;;10579963;28;20796;-90
2024/01/05 04:45:16;;;;;;;30.33;15.10;;;;;;;;;;10567452;28;20420;-91
2024/01/05 04:50:18;;;;;;;29.47;14.33;;;;;;;;;;10564456;28;20404;-91
2024/01/05 04:55:22;;;;;;;26.17;15.10;;;;;;;;;;10571959;28;20464;-91
2024/01/05 05:00:24;;;;;;;28.73;14.63;;;;;;;;;;10590143;28;21036;-91
2024/01/05 05:05:27;;;;;;;30.63;15.53;;;;;;;;;;10590276;28;20480;-92
2024/01/05 05:10:31;;;;;;;27.98;14.65;;;;;;;;;;10591875;28;20432;-90
2024/01/05 05:15:33;;;;;;;27.47;14.77;;;;;;;;;;10590379;28;20399;-91
2024/01/05 05:20:35;;;;;;;28.95;14.73;;;;;;;;;;10576472;28;20452;-91
2024/01/05 05:25:39;;;;;;;28.45;14.25;;;;;;;;;;10584111;28;20410;-92
2024/01/05 05:30:42;;;;;;;27.57;14.07;;;;;;;;;;10584769;28;20402;-91
2024/01/05 05:35:44;;;;;;;28.45;14.32;;;;;;;;;;10577714;28;20406;-92
2024/01/05 05:40:48;;;;;;;30.27;16.13;;;;;;;;;;10574792;28;20969;-92
2024/01/05 05:45:50;;;;;;;29.58;14.77;;;;;;;;;;10575457;28;20489;-91
2024/01/05 05:50:53;;;;;;;26.98;13.77;;;;;;;;;;10585011;28;20395;-92
2024/01/05 05:55:56;;;;;;;28.20;14.85;;;;;;;;;;10571768;28;20467;-92
2024/01/05 06:01:00;;;;;;;26.77;13.83;;;;;;;;;;10586666;28;20459;-92
2024/01/05 06:06:03;;;;;;;28.00;14.90;;;;;;;;;;10572000;28;20448;-92
2024/01/05 06:11:07;;;;;;;27.67;14.70;;;;;;;;;;10576302;28;20407;-91
2024/01/05 06:16:09;;;;;;;25.40;14.10;;;;;;;;;;10575459;28;20460;-92
2024/01/05 06:21:12;;;;;;;33.58;15.68;;;;;;;;;;10573566;28;20443;-91
2024/01/05 06:26:16;;;;;;;29.77;14.45;;;;;;;;;;10574193;28;20456;-92
2024/01/05 06:31:18;;;;;;;27.85;15.05;;;;;;;;;;10565625;28;20430;-91
2024/01/05 06:36:22;;;;;;;23.85;12.70;;;;;;;;;;10569709;28;20499;-92
2024/01/05 06:41:25;;;;;;;26.83;13.70;;;;;;;;;;10571857;28;20799;-91
2024/01/05 06:46:28;;;;;;;23.52;12.85;;;;;;;;;;10579839;28;20908;-92
2024/01/05 06:51:37;;;;;;;27.20;14.27;;;;;;;;;;10586558;28;20440;-92
2024/01/05 06:56:42;;;;;;;24.03;13.97;;;;;;;;;;10586334;28;20403;-91
2024/01/05 07:01:44;;;;;;;30.42;16.45;;;;;;;;;;10581887;28;20811;-91
2024/01/05 07:06:47;;;;;;;34.93;17.57;;;;;;;;;;10570994;28;20450;-92
2024/01/05 07:11:52;;;;;;;23.53;13.30;;;;;;;;;;10580000;28;20453;-91
2024/01/05 07:16:56;;;;;;;22.53;12.30;;;;;;;;;;10579067;28;20910;-93
2024/01/05 07:21:58;;;;;;;22.75;12.35;;;;;;;;;;10575797;28;20403;-91
2024/01/05 07:27:02;;;;;;;19.63;12.20;;;;;;;;;;10578678;28;20422;-93
2024/01/05 07:32:05;;;;;;;20.52;12.07;;;;;;;;;;10578905;28;20433;-94
2024/01/05 07:37:08;;;;;;;23.00;12.30;;;;;;;;;;10580381;28;20469;-95
2024/01/05 07:42:12;;;;;;;18.08;10.40;;;;;;;;;;10585926;28;20410;-92
2024/01/05 07:47:14;;;;;;;19.75;11.15;;;;;;;;;;10591825;28;20425;-94
2024/01/05 07:52:17;;;;;;;18.03;11.60;;;;;;;;;;10577257;28;20441;-92
2024/01/05 07:57:21;;;;;;;20.40;11.35;;;;;;;;;;10593676;28;20407;-93
2024/01/05 08:02:23;;;;;;;21.67;11.25;;;;;;;;;;10590940;28;20403;-93
2024/01/05 08:07:25;;;;;;;18.77;10.80;;;;;;;;;;10587190;28;20410;-94
2024/01/05 08:12:29;;;;;;;17.75;10.52;;;;;;;;;;10575951;28;20392;-93
2024/01/05 08:17:32;;;;;;;20.58;10.30;;;;;;;;;;10575708;28;20466;-94
2024/01/05 08:22:35;;;;;;;30.10;14.93;;;;;;;;;;10573581;28;20965;-94
2024/01/05 08:27:39;;;;;;;22.95;11.55;;;;;;;;;;10578875;28;20408;-92
2024/01/05 08:32:43;;;;;;;38.85;17.63;;;;;;;;;;10579957;28;20403;-95
2024/01/05 08:37:45;;;;;;;49.43;23.77;;;;;;;;;;10593985;28;20439;-93
2024/01/05 08:42:49;;;;;;;42.10;22.50;;;;;;;;;;10599087;28;20406;-94
2024/01/05 08:47:52;;;;;;;23.55;12.88;;;;;;;;;;10591587;28;20415;-93
2024/01/05 08:52:55;;;;;;;21.93;12.20;;;;;;;;;;10581603;28;20488;-94
2024/01/05 08:57:59;;;;;;;24.33;13.03;;;;;;;;;;10599350;28;20950;-94
2024/01/05 09:03:01;;;;;;;27.98;14.93;;;;;;;;;;10568779;28;20434;-93
2024/01/05 09:08:04;;;;;;;24.70;14.27;;;;;;;;;;10580406;28;20489;-94
2024/01/05 09:13:08;;;;;;;25.80;13.98;;;;;;;;;;10583370;28;20406;-93
2024/01/05 10:44:51;;;;;;;23.42;14.23;;;;;;;;;;13076591;22;2411915;-82
2024/01/05 10:49:55;;;;;;;24.60;14.43;;;;;;;;;;13188397;22;20381;-83
2024/01/05 10:55:02;;;;;;;27.65;15.00;;;;;;;;;;13171826;22;20362;-83
2024/01/05 11:00:09;;;;;;;29.20;14.80;;;;;;;;;;13172804;22;20395;-82
2024/01/05 11:05:13;;;;;;;26.48;14.73;;;;;;;;;;13172438;22;20361;-83
2024/01/05 11:10:26;;;;;;;25.93;14.57;;;;;;;;;;13171334;22;20377;-83
2024/01/05 11:15:48;;;;;;;31.45;14.80;;;;;;;;;;13173265;22;20362;-83
2024/01/05 11:21:02;;;;;;;24.67;14.30;;;;;;;;;;13173845;22;20395;-83
2024/01/05 11:26:05;;;;;;;25.48;13.98;;;;;;;;;;13173783;22;20361;-83
2024/01/05 11:31:09;;;;;;;24.98;14.65;;;;;;;;;;13173091;22;20369;-83
2024/01/05 11:36:12;;;;;;;23.63;14.23;;;;;;;;;;13170009;22;20369;-83
2024/01/05 11:41:18;;;;;;;23.75;14.50;;;;;;;;;;13172994;22;20450;-81
2024/01/05 11:46:43;;;;;;;24.30;15.73;;;;;;;;;;13172728;22;20406;-82
2024/01/05 11:51:46;;;;;;;25.10;14.53;;;;;;;;;;13171571;22;20400;-82
2024/01/05 11:56:48;;;;;;;21.98;12.45;;;;;;;;;;13172978;22;20361;-82
2024/01/05 12:01:53;;;;;;;18.42;10.40;;;;;;;;;;13172681;22;20361;-83
2024/01/05 12:06:56;;;;;;;15.60;8.98;;;;;;;;;;13170433;22;20357;-83
2024/01/05 12:12:17;;;;;;;9.35;6.50;;;;;;;;;;13172514;22;20702;-82
2024/01/05 12:17:21;;;;;;;9.57;5.83;;;;;;;;;;13172960;22;20358;-83
2024/01/05 12:22:23;;;;;;;8.55;5.50;;;;;;;;;;13171530;22;20748;-82
2024/01/05 12:27:25;;;;;;;9.88;5.53;;;;;;;;;;13174334;22;20357;-82
2024/01/05 12:32:32;;;;;;;6.55;4.90;;;;;;;;;;13171797;22;20412;-83
2024/01/05 12:37:34;;;;;;;6.13;3.60;;;;;;;;;;13171278;22;20801;-82
2024/01/05 12:42:37;;;;;;;5.83;3.43;;;;;;;;;;13171047;22;20362;-82
2024/01/05 12:47:40;;;;;;;6.78;3.88;;;;;;;;;;13172040;22;20682;-84
2024/01/05 12:52:43;;;;;;;6.47;3.80;;;;;;;;;;13171142;22;20377;-82
2024/01/05 12:57:45;;;;;;;6.55;3.40;;;;;;;;;;13171060;22;20391;-83
2024/01/05 13:02:49;;;;;;;4.47;3.30;;;;;;;;;;13170653;22;20358;-82
2024/01/05 13:07:51;;;;;;;4.57;3.15;;;;;;;;;;13171316;22;20366;-82
2024/01/05 13:12:53;;;;;;;3.47;2.65;;;;;;;;;;13172876;22;20373;-82
2024/01/05 13:17:59;;;;;;;4.05;2.80;;;;;;;;;;13171523;22;20419;-83
2024/01/05 13:23:04;;;;;;;4.30;2.83;;;;;;;;;;13170949;22;20395;-83
2024/01/05 13:28:06;;;;;;;4.30;2.90;;;;;;;;;;13171417;22;20744;-82
2024/01/05 13:33:10;;;;;;;4.07;2.72;;;;;;;;;;13168645;22;20378;-86
2024/01/05 13:38:12;;;;;;;5.25;2.40;;;;;;;;;;13160738;22;20362;-83
2024/01/05 13:43:14;;;;;;;3.88;2.40;;;;;;;;;;13166613;22;20443;-84
2024/01/05 13:48:18;;;;;;;4.22;2.65;;;;;;;;;;13167429;22;20358;-84
2024/01/05 13:53:21;;;;;;;6.07;3.08;;;;;;;;;;13165112;22;20382;-85
2024/01/05 13:58:24;;;;;;;5.07;3.30;;;;;;;;;;13162187;22;20431;-84
2024/01/05 14:03:29;;;;;;;6.93;3.67;;;;;;;;;;13163338;22;20686;-84
2024/01/05 14:08:32;;;;;;;5.38;3.55;;;;;;;;;;13155754;22;21342;-83
2024/01/05 14:13:35;;;;;;;5.93;3.75;;;;;;;;;;13160246;22;20840;-80
2024/01/05 14:18:39;;;;;;;5.03;3.57;;;;;;;;;;13160233;22;20369;-84
2024/01/05 14:23:41;;;;;;;6.23;3.63;;;;;;;;;;13160951;22;20377;-84
2024/01/05 14:28:44;;;;;;;5.72;3.35;;;;;;;;;;13161761;22;20365;-84
2024/01/05 14:33:48;;;;;;;5.25;3.30;;;;;;;;;;13165324;22;20385;-84
2024/01/05 14:38:51;;;;;;;5.80;3.60;;;;;;;;;;13163426;22;20451;-83
2024/01/05 14:43:53;;;;;;;3.80;3.00;;;;;;;;;;13165298;22;20407;-84
2024/01/05 14:48:57;;;;;;;7.50;3.47;;;;;;;;;;13163872;22;20377;-83
2024/01/05 14:54:00;;;;;;;5.55;3.13;;;;;;;;;;13163326;22;20381;-84
2024/01/05 14:59:02;;;;;;;5.00;3.42;;;;;;;;;;13178406;22;20393;-84
2024/01/05 15:04:06;;;;;;;8.52;3.95;;;;;;;;;;13171552;22;20677;-84
2024/01/05 15:09:08;;;;;;;5.45;3.10;;;;;;;;;;13168729;22;20349;-84
2024/01/05 15:14:11;;;;;;;5.82;3.13;;;;;;;;;;13173076;22;20377;-84
2024/01/05 15:19:14;;;;;;;3.53;2.45;;;;;;;;;;13171487;22;20467;-83
2024/01/05 15:24:17;;;;;;;5.03;2.47;;;;;;;;;;13098113;22;20380;-92
2024/01/05 15:29:20;;;;;;;4.38;2.90;;;;;;;;;;13067870;22;20383;-92
2024/01/05 15:34:24;;;;;;;4.90;2.97;;;;;;;;;;13069371;22;20372;-92
2024/01/05 15:39:27;;;;;;;7.83;3.60;;;;;;;;;;13073210;22;20349;-90
2024/01/05 15:44:29;;;;;;;4.37;2.77;;;;;;;;;;13069782;22;20419;-91
2024/01/05 15:49:33;;;;;;;5.35;3.05;;;;;;;;;;13063112;22;20829;-91
2024/01/05 15:54:35;;;;;;;4.60;3.33;;;;;;;;;;13065243;22;20384;-89
2024/01/05 15:59:37;;;;;;;4.07;2.90;;;;;;;;;;13088069;22;20365;-92
2024/01/05 16:04:41;;;;;;;4.05;2.95;;;;;;;;;;13082202;22;20394;-92
2024/01/05 16:09:43;;;;;;;4.23;2.90;;;;;;;;;;13083554;22;20357;-91
2024/01/05 16:14:47;;;;;;;5.72;3.05;;;;;;;;;;13057496;22;20418;-91
2024/01/05 16:19:51;;;;;;;6.60;3.53;;;;;;;;;;13057653;22;20373;-91
2024/01/05 16:24:54;;;;;;;4.95;3.05;;;;;;;;;;13052629;22;20494;-92
2024/01/05 16:29:56;;;;;;;6.37;3.30;;;;;;;;;;13066363;22;20422;-92
2024/01/05 16:35:00;;;;;;;6.93;3.10;;;;;;;;;;13057986;22;20381;-91
2024/01/05 16:40:03;;;;;;;6.37;3.30;;;;;;;;;;13068863;22;20369;-91
2024/01/05 16:45:07;;;;;;;7.10;3.10;;;;;;;;;;13053703;22;20377;-93
2024/01/05 16:50:13;;;;;;;5.00;3.10;;;;;;;;;;13058841;22;20403;-92
2024/01/05 16:55:15;;;;;;;4.50;2.88;;;;;;;;;;13064327;22;20372;-91
2024/01/05 17:00:20;;;;;;;5.28;3.10;;;;;;;;;;13080725;22;20369;-93
2024/01/05 17:05:24;;;;;;;5.97;2.90;;;;;;;;;;13060381;22;20365;-92
2024/01/05 17:10:27;;;;;;;3.37;2.47;;;;;;;;;;13061157;22;20365;-93
2024/01/05 17:15:30;;;;;;;5.07;2.70;;;;;;;;;;13060300;22;20682;-94
2024/01/05 17:20:34;;;;;;;5.20;2.97;;;;;;;;;;13060517;22;20411;-90
2024/01/05 17:25:36;;;;;;;9.82;4.38;;;;;;;;;;13058937;22;20751;-92
2024/01/05 17:30:39;;;;;;;6.88;4.20;;;;;;;;;;13067198;22;20399;-92
2024/01/05 17:35:44;;;;;;;8.65;4.80;;;;;;;;;;13071174;22;20446;-92
2024/01/05 17:40:46;;;;;;;8.82;5.90;;;;;;;;;;13059331;22;20376;-91
2024/01/05 17:45:48;;;;;;;9.73;4.70;;;;;;;;;;13052277;22;20402;-93
2024/01/05 17:50:52;;;;;;;11.43;6.60;;;;;;;;;;13040391;22;20377;-93
2024/01/05 17:55:54;;;;;;;6.72;4.00;;;;;;;;;;13066326;22;20384;-93
2024/01/05 18:00:57;;;;;;;7.50;4.10;;;;;;;;;;13036199;22;20399;-93
2024/01/05 18:06:01;;;;;;;6.80;3.78;;;;;;;;;;13041820;22;20365;-91
2024/01/05 18:11:03;;;;;;;7.35;3.85;;;;;;;;;;13053152;22;20369;-91
2024/01/05 18:16:07;;;;;;;5.28;3.20;;;;;;;;;;13045736;22;20422;-93
2024/01/05 18:21:12;;;;;;;6.05;3.55;;;;;;;;;;13043991;22;20462;-89
2024/01/05 18:26:18;;;;;;;7.35;4.40;;;;;;;;;;13049211;22;20926;-92
2024/01/05 18:31:30;;;;;;;7.57;4.13;;;;;;;;;;13044067;22;20403;-91
2024/01/05 18:36:34;;;;;;;6.90;4.03;;;;;;;;;;13044363;22;20910;-92
2024/01/05 18:41:38;;;;;;;7.28;3.78;;;;;;;;;;13044760;22;20372;-91
2024/01/05 18:46:41;;;;;;;7.68;4.63;;;;;;;;;;13044083;22;20380;-92
2024/01/05 18:51:45;;;;;;;7.85;4.65;;;;;;;;;;13044145;22;20464;-90
2024/01/05 18:56:47;;;;;;;12.33;5.20;;;;;;;;;;13044407;22;20377;-93
2024/01/05 19:01:50;;;;;;;13.77;6.33;;;;;;;;;;13045421;22;20372;-93
2024/01/05 19:06:53;;;;;;;13.40;5.50;;;;;;;;;;13046211;22;20426;-93
2024/01/05 19:11:56;;;;;;;7.30;5.60;;;;;;;;;;13042607;22;20434;-93
2024/01/05 19:16:58;;;;;;;7.27;4.53;;;;;;;;;;13066051;22;20349;-93
2024/01/05 19:22:02;;;;;;;7.93;4.50;;;;;;;;;;13047369;22;20864;-92
2024/01/05 19:27:05;;;;;;;6.17;3.87;;;;;;;;;;13059086;22;20365;-94
2024/01/05 19:32:08;;;;;;;7.93;3.97;;;;;;;;;;13057326;22;20377;-93
2024/01/05 19:37:12;;;;;;;6.82;4.13;;;;;;;;;;13051316;22;20430;-94
2024/01/05 19:42:20;;;;;;;8.35;4.45;;;;;;;;;;13044171;22;20381;-94
2024/01/05 19:47:22;;;;;;;6.32;4.00;;;;;;;;;;13042007;22;20454;-91
2024/01/05 19:52:26;;;;;;;5.70;3.50;;;;;;;;;;13054950;22;20454;-94
2024/01/05 19:57:28;;;;;;;5.68;3.53;;;;;;;;;;13054460;22;20435;-94
2024/01/05 20:02:32;;;;;;;4.88;3.47;;;;;;;;;;13044126;22;20380;-93
2024/01/05 20:07:39;;;;;;;6.78;4.20;;;;;;;;;;13041071;22;20431;-93
2024/01/05 20:12:45;;;;;;;10.15;4.80;;;;;;;;;;13042741;22;20442;-94
2024/01/05 20:17:50;;;;;;;8.20;4.60;;;;;;;;;;13042325;22;20395;-93
2024/01/05 20:22:54;;;;;;;6.50;4.25;;;;;;;;;;13040603;22;20377;-92
2024/01/05 20:27:56;;;;;;;7.40;4.43;;;;;;;;;;13042457;22;20399;-94
2024/01/05 20:32:59;;;;;;;9.77;5.20;;;;;;;;;;13040171;22;20381;-94
2024/01/05 20:38:03;;;;;;;7.45;4.88;;;;;;;;;;13041903;22;20393;-91
2024/01/05 20:43:07;;;;;;;9.98;5.85;;;;;;;;;;13043440;22;20450;-94
2024/01/05 20:48:10;;;;;;;13.77;6.95;;;;;;;;;;13047495;22;20376;-96
2024/01/05 20:53:15;;;;;;;13.35;7.05;;;;;;;;;;13042065;22;20434;-94
2024/01/05 20:58:17;;;;;;;14.35;7.32;;;;;;;;;;13044142;22;20381;-95
2024/01/05 21:03:19;;;;;;;13.18;7.63;;;;;;;;;;13044461;22;20377;-95
2024/01/05 21:08:23;;;;;;;16.63;8.23;;;;;;;;;;13043686;22;20925;-95
2024/01/05 21:13:26;;;;;;;16.10;8.10;;;;;;;;;;13044917;22;20927;-95
2024/01/05 21:18:36;;;;;;;14.30;7.70;;;;;;;;;;13059417;22;20345;-95
2024/01/05 21:23:49;;;;;;;16.90;9.32;;;;;;;;;;13045033;22;20368;-95
2024/01/05 21:34:13;;;;;;;19.57;10.50;;;;;;;;;;13038554;22;20388;-95
2024/01/05 21:39:21;;;;;;;20.55;10.55;;;;;;;;;;13042031;22;20369;-96
2024/01/05 21:44:34;;;;;;;18.30;10.63;;;;;;;;;;13042694;22;20377;-96
2024/01/05 21:49:51;;;;;;;14.50;8.67;;;;;;;;;;13018337;22;20406;-95
2024/01/05 21:55:06;;;;;;;14.75;8.13;;;;;;;;;;13042657;22;20389;-94
2024/01/05 22:00:15;;;;;;;12.43;7.72;;;;;;;;;;13051655;22;20373;-95
2024/01/05 22:05:20;;;;;;;11.00;6.03;;;;;;;;;;13039566;22;20427;-94
2024/01/05 22:10:24;;;;;;;8.77;5.00;;;;;;;;;;13051509;22;20377;-95
2024/01/05 22:15:26;;;;;;;5.72;4.20;;;;;;;;;;13041554;22;20384;-95
2024/01/05 22:20:29;;;;;;;6.03;3.90;;;;;;;;;;13043792;22;20380;-95
2024/01/05 22:25:33;;;;;;;5.68;3.17;;;;;;;;;;13044094;22;20377;-96
2024/01/05 22:30:35;;;;;;;2.97;2.25;;;;;;;;;;13043095;22;20406;-96
2024/01/05 22:35:37;;;;;;;3.67;2.30;;;;;;;;;;13062851;22;20469;-96
2024/01/05 22:40:41;;;;;;;4.35;2.60;;;;;;;;;;13048741;22;20365;-95
2024/01/05 22:45:43;;;;;;;3.55;2.50;;;;;;;;;;13046577;22;20403;-96
2024/01/05 22:50:47;;;;;;;4.78;2.88;;;;;;;;;;13052184;22;20391;-95
2024/01/05 22:55:51;;;;;;;4.55;2.88;;;;;;;;;;13051899;22;20814;-95
2024/01/05 23:00:53;;;;;;;4.20;2.43;;;;;;;;;;13048871;22;20377;-92
2024/01/05 23:05:58;;;;;;;4.77;2.63;;;;;;;;;;13065079;22;20453;-96
2024/01/05 23:11:01;;;;;;;4.57;1.80;;;;;;;;;;13069865;22;20349;-96
2024/01/05 23:16:04;;;;;;;3.10;1.65;;;;;;;;;;13073302;22;20709;-96
2024/01/05 23:21:08;;;;;;;3.97;2.38;;;;;;;;;;13054467;22;20407;-96
2024/01/05 23:26:16;;;;;;;4.13;2.50;;;;;;;;;;13062582;22;20365;-95
2024/01/05 23:31:18;;;;;;;4.38;2.70;;;;;;;;;;13056341;22;20362;-96
2024/01/05 23:36:20;;;;;;;4.25;2.67;;;;;;;;;;13055573;22;20380;-96
2024/01/05 23:41:24;;;;;;;4.43;2.77;;;;;;;;;;13056972;22;20371;-96
2024/01/05 23:46:26;;;;;;;3.28;2.03;;;;;;;;;;13052804;22;20365;-96
2024/01/05 23:51:29;;;;;;;2.45;1.85;;;;;;;;;;13074397;22;20366;-96
2024/01/05 23:56:32;;;;;;;3.80;2.37;;;;;;;;;;13052942;22;20372;-96
